Main page
METAR-TAF:

METAR-TAF

Airports :

Déline Airport

Deline, Northwest Territories, Canada

latitude: 65-12N, longitude: 123-26W, elevation: 176 m

Current weather observation

The report was made 58 minutes ago, at 16:00 UTC
Wind 3 kt from the Southwest
Temperature 9°C
Humidity 61%
Pressure 1002 hPa
Visibility: 48.3 km
Few clouds at a height of 10000 ft
Broken clouds at a height of 16000 ft

METAR: CYWJ 251600Z 22003KT 30SM FEW100 BKN160 09/02 A2959 RMK AC2AC3 SLP031

Time: 10:58 (16:58 UTC)

Forecast

The report was made 2 hours and 48 minutes ago, at 14:10 UTC
Forecast valid from 25 at 14 UTC to 25 at 23 UTC
Wind 5 kt from the East
Visibility: 10 km
Scattered clouds at a height of 10000 ft
Broken clouds at a height of 16000 ft
From 25 at 1600 UTC
Wind 12 kt from the East
Visibility: 10 km
Scattered clouds at a height of 10000 ft

TAF: CYWJ 251410Z 2514/2523 10005KT P6SM SCT100 BKN160 FM251600 10012KT P6SM SCT100 RMK NXT FCST BY 251800Z

Weather observations and forecasts of more than 4000 airports (METAR and TAF reports).

The available stations are represented by yellow and red dots on the map.

Hover mouse over dot to see the name of the station.

Then click to see weather observations and forecasts.

To change the map : click on the green buttons with a black cross to zoom in, on the green button with a dash to zoom out, or on the green arrows for adjacent maps.


METAR-TAF: